createdAt,value
2023-04-06T00:03:59.779Z,0
2023-04-06T00:09:17.255Z,0
2023-04-06T00:14:36.709Z,0
2023-04-06T00:20:22.381Z,0
2023-04-06T00:25:40.453Z,0
2023-04-06T00:30:57.706Z,0
2023-04-06T00:36:31.995Z,0
2023-04-06T00:41:49.807Z,0
2023-04-06T00:47:06.995Z,0
2023-04-06T00:52:24.223Z,0
2023-04-06T00:57:41.499Z,0
2023-04-06T01:03:01.595Z,0
2023-04-06T01:13:39.419Z,0
2023-04-06T01:19:07.486Z,0
2023-04-06T01:24:25.147Z,0
2023-04-06T01:29:42.363Z,0
2023-04-06T01:35:16.897Z,0
2023-04-06T01:40:34.549Z,0
2023-04-06T01:45:52.204Z,0
2023-04-06T01:51:09.752Z,0
2023-04-06T01:56:27.270Z,0
2023-04-06T02:01:44.658Z,0
2023-04-06T02:07:01.867Z,0
2023-04-06T02:12:19.618Z,0
2023-04-06T02:17:37.210Z,0
2023-04-06T02:22:54.852Z,0
2023-04-06T02:28:12.688Z,0
2023-04-06T02:33:30.139Z,0
2023-04-06T02:38:47.554Z,0
2023-04-06T02:44:05.049Z,0
2023-04-06T02:49:39.592Z,0
2023-04-06T02:54:57.286Z,0
2023-04-06T03:00:14.620Z,0
2023-04-06T03:05:32.036Z,0
2023-04-06T03:10:49.889Z,0
2023-04-06T03:16:09.388Z,0
2023-04-06T03:21:29.189Z,0
2023-04-06T03:26:46.962Z,0
2023-04-06T03:32:04.429Z,0
2023-04-06T03:43:18.219Z,0
2023-04-06T03:48:35.937Z,0
2023-04-06T03:53:53.089Z,0
2023-04-06T03:59:13.101Z,0
2023-04-06T04:04:30.632Z,0
2023-04-06T04:09:48.168Z,0
2023-04-06T04:15:05.607Z,0
2023-04-06T04:20:24.328Z,0
2023-04-06T04:25:41.632Z,0
2023-04-06T04:30:59.041Z,0
2023-04-06T04:36:40.682Z,0
2023-04-06T04:41:58.454Z,0.9
2023-04-06T04:47:15.541Z,35
2023-04-06T04:52:50.044Z,80.8
2023-04-06T04:58:07.147Z,154.6
2023-04-06T05:03:24.323Z,247.5
2023-04-06T05:08:41.685Z,385.8
2023-04-06T05:13:59.034Z,565.8
2023-04-06T05:19:16.071Z,818.7
2023-04-06T05:24:33.150Z,1198.7
2023-04-06T05:29:55.534Z,1517.1
2023-04-06T05:35:13.859Z,1834.6
2023-04-06T05:40:31.375Z,2248.3
2023-04-06T05:45:48.604Z,2477.5
2023-04-06T05:51:05.873Z,3012.5
2023-04-06T05:56:23.052Z,3517.5
2023-04-06T06:01:57.534Z,4151.7
2023-04-06T06:07:15.021Z,5141.7
2023-04-06T06:12:32.414Z,5644.6
2023-04-06T06:17:57.226Z,5206.7
2023-04-06T06:23:32.328Z,5164.2
2023-04-06T06:28:49.686Z,6036.2
2023-04-06T06:34:06.785Z,6960
2023-04-06T06:39:24.106Z,7480.8
2023-04-06T06:44:41.106Z,7031.7
2023-04-06T06:50:13.557Z,6856.7
2023-04-06T06:55:30.720Z,7064.6
2023-04-06T07:00:47.925Z,7696.2
2023-04-06T07:06:05.067Z,8414.2
2023-04-06T07:11:24.884Z,9530.4
2023-04-06T07:16:42.399Z,10804.2
2023-04-06T07:21:59.986Z,12042.9
2023-04-06T07:27:17.355Z,12760.4
2023-04-06T07:32:34.720Z,12808.8
2023-04-06T07:37:51.993Z,11873.3
2023-04-06T07:43:09.095Z,10977.1
2023-04-06T07:48:26.181Z,9987.5
2023-04-06T07:53:43.228Z,11037.5
2023-04-06T07:59:00.496Z,12404.6
2023-04-06T08:04:17.934Z,13535
2023-04-06T08:09:44.462Z,13272.5
2023-04-06T08:15:01.683Z,13751.2
2023-04-06T08:20:18.787Z,12897.1
2023-04-06T08:25:35.644Z,12942.1
2023-04-06T08:30:52.886Z,14282.1
2023-04-06T08:36:10.263Z,14970
2023-04-06T08:41:27.621Z,16872.9
2023-04-06T08:46:44.931Z,17992.5
2023-04-06T08:57:22.402Z,17314.6
2023-04-06T09:02:39.817Z,16621.7
2023-04-06T09:07:56.945Z,17699.6
2023-04-06T09:13:14.475Z,19796.3
2023-04-06T09:18:31.996Z,21003.3
2023-04-06T09:23:49.671Z,20562.1
2023-04-06T09:34:23.552Z,19282.1
2023-04-06T09:39:40.456Z,18970
2023-04-06T09:44:57.408Z,19217.1
2023-04-06T09:50:14.501Z,20111.3
2023-04-06T09:55:31.667Z,20914.6
2023-04-06T10:01:06.273Z,21047.1
2023-04-06T10:06:23.839Z,22317.5
2023-04-06T10:11:41.094Z,21793.8
2023-04-06T10:17:03.433Z,20106.7
2023-04-06T10:22:20.401Z,19710.4
2023-04-06T10:27:38.209Z,21419.2
2023-04-06T10:32:56.421Z,21484.2
2023-04-06T10:38:13.945Z,19132.1
2023-04-06T10:43:31.052Z,18788.7
2023-04-06T10:48:55.965Z,20382.5
2023-04-06T10:54:13.389Z,19315
2023-04-06T10:59:30.368Z,21096.7
2023-04-06T11:04:47.714Z,22871.2
2023-04-06T11:10:15.422Z,25383.3
2023-04-06T11:15:46.813Z,23106.7
2023-04-06T11:21:03.848Z,21059.6
2023-04-06T11:26:20.338Z,20724.2
2023-04-06T11:31:37.557Z,19064.2
2023-04-06T11:37:03.543Z,16544.2
2023-04-06T11:42:20.268Z,14761.2
2023-04-06T11:47:36.967Z,15064.6
2023-04-06T11:53:11.239Z,15079.2
2023-04-06T11:58:28.438Z,13464.6
2023-04-06T12:03:52.754Z,12773.7
2023-04-06T12:09:09.823Z,12441.7
2023-04-06T12:14:26.655Z,14894.2
2023-04-06T12:19:43.606Z,13477.9
2023-04-06T12:25:00.446Z,11001.7
2023-04-06T12:30:17.403Z,12995.8
2023-04-06T12:35:35.170Z,17734.6
2023-04-06T12:46:19.212Z,14070.8
2023-04-06T12:51:35.716Z,11883.7
2023-04-06T12:56:52.725Z,8511.7
2023-04-06T13:02:09.446Z,9168.7
2023-04-06T13:07:41.697Z,9164.6
2023-04-06T13:12:58.966Z,7729.2
2023-04-06T13:18:16.050Z,8819.6
2023-04-06T13:23:33.250Z,10470.4
2023-04-06T13:28:50.488Z,10250.4
2023-04-06T13:39:27.670Z,7479.2
2023-04-06T13:44:44.633Z,7379.6
2023-04-06T13:50:01.466Z,6434.2
2023-04-06T13:55:18.471Z,7461.3
2023-04-06T14:00:35.597Z,7936.7
2023-04-06T14:05:52.883Z,6248.8
2023-04-06T14:11:09.896Z,6681.7
2023-04-06T14:21:53.095Z,9746.2
2023-04-06T14:27:10.657Z,8836.2
2023-04-06T14:32:27.501Z,7984.6
2023-04-06T14:37:47.455Z,7284.2
2023-04-06T14:43:04.761Z,7815
2023-04-06T14:48:21.724Z,8842.9
2023-04-06T14:53:39.075Z,9372.5
2023-04-06T14:58:56.140Z,8500.4
2023-04-06T15:04:13.193Z,6885.8
2023-04-06T15:09:30.349Z,5964.6
2023-04-06T15:14:47.403Z,5226.7
2023-04-06T15:20:04.324Z,4732.5
2023-04-06T15:25:24.426Z,3896.3
2023-04-06T15:30:41.441Z,3668.8
2023-04-06T15:35:58.255Z,3117.5
2023-04-06T15:41:15.169Z,3266.3
2023-04-06T15:46:32.254Z,2861.7
2023-04-06T15:51:51.822Z,2992.1
2023-04-06T15:57:09.115Z,3104.6
2023-04-06T16:02:26.291Z,2839.2
2023-04-06T16:07:45.856Z,3148.3
2023-04-06T16:13:05.445Z,2812.1
2023-04-06T16:18:22.621Z,3019.6
2023-04-06T16:23:39.584Z,3616.3
2023-04-06T16:28:56.838Z,4662.9
2023-04-06T16:34:14.392Z,4468.7
2023-04-06T16:39:31.256Z,3587.9
2023-04-06T16:44:48.206Z,2918.3
2023-04-06T16:50:07.726Z,2309.6
2023-04-06T16:55:24.767Z,2135
2023-04-06T17:00:41.576Z,1654.6
2023-04-06T17:05:58.388Z,1347.9
2023-04-06T17:11:17.985Z,1040.4
2023-04-06T17:16:37.321Z,1020.4
2023-04-06T17:21:54.497Z,1020.4
2023-04-06T17:27:11.461Z,731.2
2023-04-06T17:32:28.658Z,716.7
2023-04-06T17:37:45.767Z,655.4
2023-04-06T17:43:03.100Z,524.2
2023-04-06T17:48:20.150Z,518.3
2023-04-06T17:53:37.233Z,431.2
2023-04-06T17:58:54.600Z,361.2
2023-04-06T18:04:11.373Z,295.4
2023-04-06T18:09:28.626Z,184.6
2023-04-06T18:14:45.862Z,102.5
2023-04-06T18:20:02.880Z,60.8
2023-04-06T18:25:19.960Z,29.6
2023-04-06T18:30:39.331Z,0.9
2023-04-06T18:35:56.610Z,0
2023-04-06T18:41:13.908Z,0
2023-04-06T18:46:31.090Z,0
2023-04-06T18:51:48.422Z,0
2023-04-06T18:57:05.960Z,0
2023-04-06T19:02:23.336Z,0
2023-04-06T19:07:40.833Z,0
2023-04-06T19:13:01.870Z,0
2023-04-06T19:18:19.332Z,0
2023-04-06T19:23:36.689Z,0
2023-04-06T19:28:53.969Z,0
2023-04-06T19:34:11.434Z,0
2023-04-06T19:39:28.788Z,0
2023-04-06T19:44:46.262Z,0
2023-04-06T19:50:03.791Z,0
2023-04-06T19:55:21.418Z,0
2023-04-06T20:00:38.777Z,0
2023-04-06T20:05:55.967Z,0
2023-04-06T20:11:13.256Z,0
2023-04-06T20:16:30.716Z,0
2023-04-06T20:21:48.133Z,0
2023-04-06T20:27:05.492Z,0
2023-04-06T20:32:25.126Z,0
2023-04-06T20:37:42.738Z,0
2023-04-06T20:43:21.116Z,0
2023-04-06T20:48:38.837Z,0
2023-04-06T20:54:03.464Z,0
2023-04-06T20:59:21.023Z,0
2023-04-06T21:04:38.370Z,0
2023-04-06T21:09:55.985Z,0
2023-04-06T21:15:13.449Z,0
2023-04-06T21:20:34.063Z,0
2023-04-06T21:25:51.413Z,0
2023-04-06T21:31:11.962Z,0
2023-04-06T21:36:46.547Z,0
2023-04-06T21:42:04.180Z,0
2023-04-06T21:47:25.155Z,0
2023-04-06T21:52:42.606Z,0
2023-04-06T21:57:59.829Z,0
2023-04-06T22:08:37.588Z,0
2023-04-06T22:13:55.006Z,0
2023-04-06T22:24:32.560Z,0
2023-04-06T22:29:50.146Z,0
2023-04-06T22:35:17.751Z,0
2023-04-06T22:40:35.282Z,0
2023-04-06T22:45:52.611Z,0
2023-04-06T22:51:09.879Z,0
2023-04-06T22:56:27.538Z,0
2023-04-06T23:01:44.789Z,0
2023-04-06T23:07:02.258Z,0
2023-04-06T23:12:22.687Z,0
2023-04-06T23:17:40.600Z,0
2023-04-06T23:22:58.163Z,0
2023-04-06T23:28:15.612Z,0
2023-04-06T23:33:32.962Z,0
2023-04-06T23:38:53.336Z,0
2023-04-06T23:44:12.774Z,0
2023-04-06T23:49:32.954Z,0
2023-04-06T23:54:50.272Z,0
